Time;durP1;ratioP1;P1;durP2;ratioP2;P2;SDS_P1;SDS_P2;PMS_P1;PMS_P2;Temp;Humidity;BMP_temperature;BMP_pressure;BME280_temperature;BME280_humidity;BME280_pressure;Samples;Min_cycle;Max_cycle;Signal;HPM_P1;HPM_P2
2024/01/13 00:01:38;;;;;;;18.50;10.40;;;;;;;;;;5083391;28;20054;-69
2024/01/13 00:04:03;;;;;;;16.80;9.70;;;;;;;;;;5085515;28;20076;-69
2024/01/13 00:06:28;;;;;;;11.25;8.40;;;;;;;;;;5082637;28;20054;-68
2024/01/13 00:08:54;;;;;;;18.90;11.10;;;;;;;;;;5069462;28;24070;-67
2024/01/13 00:11:19;;;;;;;14.75;9.55;;;;;;;;;;5075751;28;20083;-68
2024/01/13 00:13:44;;;;;;;18.23;10.43;;;;;;;;;;5077301;28;20065;-67
2024/01/13 00:16:10;;;;;;;;;;;;;;;;;;5070251;28;20088;-69
2024/01/13 00:18:35;;;;;;;;;;;;;;;;;;5075147;28;20090;-67
2024/01/13 00:21:00;;;;;;;14.40;9.30;;;;;;;;;;5071754;28;19920;-67
2024/01/13 00:23:26;;;;;;;;;;;;;;;;;;5073507;28;20065;-67
2024/01/13 00:25:51;;;;;;;17.40;10.80;;;;;;;;;;5073734;28;24076;-67
2024/01/13 00:28:16;;;;;;;;;;;;;;;;;;5075273;28;19923;-66
2024/01/13 00:30:41;;;;;;;;;;;;;;;;;;5076206;28;20062;-67
2024/01/13 00:33:06;;;;;;;;;;;;;;;;;;5084517;28;19916;-68
2024/01/13 00:35:32;;;;;;;;;;;;;;;;;;5085965;28;24068;-67
2024/01/13 00:37:57;;;;;;;;;;;;;;;;;;5080259;28;20130;-67
2024/01/13 00:40:22;;;;;;;;;;;;;;;;;;5074512;28;25062;-67
2024/01/13 00:42:47;;;;;;;14.75;9.15;;;;;;;;;;5086691;28;19924;-67
2024/01/13 00:45:13;;;;;;;24.87;10.13;;;;;;;;;;5081165;28;20495;-67
2024/01/13 00:47:38;;;;;;;18.57;10.30;;;;;;;;;;5084158;28;20035;-67
2024/01/13 00:50:04;;;;;;;14.97;9.50;;;;;;;;;;5079232;28;20376;-67
2024/01/13 00:52:29;;;;;;;18.37;9.87;;;;;;;;;;5084485;28;20040;-66
2024/01/13 00:54:54;;;;;;;17.05;10.20;;;;;;;;;;5077092;28;20593;-67
2024/01/13 00:57:20;;;;;;;14.90;9.23;;;;;;;;;;5066071;28;20553;-67
2024/01/13 00:59:45;;;;;;;16.50;10.10;;;;;;;;;;5075668;28;20029;-67
2024/01/13 01:02:11;;;;;;;17.60;9.50;;;;;;;;;;5086464;28;20040;-67
2024/01/13 01:04:36;;;;;;;19.20;9.25;;;;;;;;;;5069422;28;20064;-67
2024/01/13 01:07:01;;;;;;;19.67;10.60;;;;;;;;;;5075997;28;20115;-66
2024/01/13 01:09:26;;;;;;;24.05;10.50;;;;;;;;;;5078821;28;20182;-67
2024/01/13 01:11:52;;;;;;;15.70;9.17;;;;;;;;;;5076522;28;20075;-67
2024/01/13 01:14:17;;;;;;;19.73;10.27;;;;;;;;;;5082881;28;20335;-67
2024/01/13 01:16:42;;;;;;;18.10;10.10;;;;;;;;;;5087604;28;20494;-67
2024/01/13 01:19:08;;;;;;;18.27;9.50;;;;;;;;;;5090260;28;20403;-66
2024/01/13 01:21:33;;;;;;;15.07;8.77;;;;;;;;;;5067844;28;20040;-66
2024/01/13 01:23:58;;;;;;;20.40;9.75;;;;;;;;;;5076228;28;20037;-66
2024/01/13 01:26:24;;;;;;;16.35;9.38;;;;;;;;;;5075252;28;20043;-67
2024/01/13 01:28:49;;;;;;;20.77;10.10;;;;;;;;;;5073275;28;20036;-67
2024/01/13 01:31:14;;;;;;;19.90;10.30;;;;;;;;;;5073064;28;20003;-67
2024/01/13 01:33:40;;;;;;;19.27;9.60;;;;;;;;;;5075103;28;20044;-67
2024/01/13 01:36:05;;;;;;;17.90;10.50;;;;;;;;;;5072193;28;20078;-67
2024/01/13 01:38:30;;;;;;;18.40;9.90;;;;;;;;;;5073737;28;20039;-67
2024/01/13 01:40:56;;;;;;;15.88;9.30;;;;;;;;;;5076414;28;20041;-67
2024/01/13 01:43:22;;;;;;;15.50;9.15;;;;;;;;;;5076575;28;20032;-67
2024/01/13 01:45:51;;;;;;;23.17;8.60;;;;;;;;;;5063747;28;20039;-68
2024/01/13 01:48:17;;;;;;;19.60;9.07;;;;;;;;;;5083004;28;20029;-67
2024/01/13 01:50:42;;;;;;;21.02;9.38;;;;;;;;;;5055367;28;20080;-68
2024/01/13 01:53:08;;;;;;;20.95;10.65;;;;;;;;;;5080935;28;20057;-67
2024/01/13 01:55:34;;;;;;;17.42;9.70;;;;;;;;;;5078881;28;20036;-68
2024/01/13 01:58:00;;;;;;;19.23;10.40;;;;;;;;;;5077636;28;20620;-68
2024/01/13 02:00:25;;;;;;;20.33;10.70;;;;;;;;;;5053448;28;20032;-67
2024/01/13 02:02:51;;;;;;;17.93;9.87;;;;;;;;;;5076992;28;20115;-67
2024/01/13 02:05:17;;;;;;;17.48;10.13;;;;;;;;;;5080132;28;20067;-68
2024/01/13 02:07:43;;;;;;;19.23;10.50;;;;;;;;;;5090204;28;20044;-67
2024/01/13 02:10:09;;;;;;;19.40;10.73;;;;;;;;;;5086099;28;20033;-67
2024/01/13 02:12:34;;;;;;;15.15;9.50;;;;;;;;;;5078811;28;20314;-67
2024/01/13 02:14:59;;;;;;;22.27;9.93;;;;;;;;;;5072460;28;20119;-67
2024/01/13 02:17:25;;;;;;;21.35;10.02;;;;;;;;;;5073744;28;20039;-67
2024/01/13 02:19:50;;;;;;;20.75;9.02;;;;;;;;;;5072922;28;20063;-67
2024/01/13 02:22:16;;;;;;;22.15;10.40;;;;;;;;;;5065104;28;20460;-68
2024/01/13 02:24:41;;;;;;;22.23;9.52;;;;;;;;;;5079296;28;20463;-66
2024/01/13 02:27:06;;;;;;;20.65;9.85;;;;;;;;;;5079777;28;20039;-67
2024/01/13 02:29:31;;;;;;;15.77;9.10;;;;;;;;;;5077086;28;20040;-67
2024/01/13 02:31:57;;;;;;;16.48;9.68;;;;;;;;;;5080935;28;20031;-67
2024/01/13 02:34:22;;;;;;;19.25;10.23;;;;;;;;;;5083805;28;20024;-67
2024/01/13 02:36:47;;;;;;;25.08;10.65;;;;;;;;;;5087381;28;20032;-67
2024/01/13 02:39:13;;;;;;;17.50;9.48;;;;;;;;;;5082253;28;20032;-67
2024/01/13 02:41:38;;;;;;;16.55;9.55;;;;;;;;;;5075468;28;20024;-66
2024/01/13 02:44:04;;;;;;;18.70;9.73;;;;;;;;;;5086581;28;20132;-68
2024/01/13 02:46:29;;;;;;;17.20;9.35;;;;;;;;;;5075712;28;19970;-67
2024/01/13 02:48:56;;;;;;;19.27;10.77;;;;;;;;;;5069864;28;20169;-66
2024/01/13 02:51:21;;;;;;;16.55;9.10;;;;;;;;;;5057679;28;20110;-67
2024/01/13 02:53:46;;;;;;;18.13;9.80;;;;;;;;;;5085812;28;20472;-66
2024/01/13 02:56:12;;;;;;;18.60;10.30;;;;;;;;;;5075686;28;20123;-67
2024/01/13 02:58:37;;;;;;;15.85;8.82;;;;;;;;;;5076628;28;20165;-67
2024/01/13 03:01:06;;;;;;;15.73;9.23;;;;;;;;;;5070548;28;20025;-67
2024/01/13 03:03:33;;;;;;;17.58;8.77;;;;;;;;;;5079278;28;20055;-67
2024/01/13 03:05:58;;;;;;;24.30;9.70;;;;;;;;;;5079861;28;20036;-66
2024/01/13 03:08:24;;;;;;;14.93;8.23;;;;;;;;;;5080365;28;20115;-67
2024/01/13 03:10:50;;;;;;;17.05;9.25;;;;;;;;;;5079434;28;20028;-68
2024/01/13 03:13:15;;;;;;;19.50;10.10;;;;;;;;;;5077934;28;20537;-67
2024/01/13 03:15:40;;;;;;;16.75;9.75;;;;;;;;;;5078259;28;20426;-68
2024/01/13 03:18:06;;;;;;;15.00;8.50;;;;;;;;;;5077364;28;20059;-67
2024/01/13 03:20:31;;;;;;;18.00;10.10;;;;;;;;;;5073490;28;20052;-67
2024/01/13 03:22:56;;;;;;;18.50;9.23;;;;;;;;;;5071388;28;20082;-66
2024/01/13 03:25:22;;;;;;;19.02;9.77;;;;;;;;;;5071273;28;20055;-66
2024/01/13 03:27:47;;;;;;;17.63;9.10;;;;;;;;;;5074504;28;20556;-67
2024/01/13 03:30:13;;;;;;;18.50;9.32;;;;;;;;;;5069881;28;20452;-66
2024/01/13 03:32:38;;;;;;;20.40;9.88;;;;;;;;;;5081049;28;20032;-66
2024/01/13 03:35:03;;;;;;;16.98;8.68;;;;;;;;;;5072913;28;20036;-66
2024/01/13 03:37:29;;;;;;;16.83;9.95;;;;;;;;;;5083497;28;20394;-66
2024/01/13 03:39:54;;;;;;;15.02;8.60;;;;;;;;;;5053928;28;20143;-67
2024/01/13 03:42:19;;;;;;;19.77;10.23;;;;;;;;;;5078776;28;20064;-66
2024/01/13 03:44:45;;;;;;;17.33;9.32;;;;;;;;;;5078775;28;20029;-66
2024/01/13 03:47:10;;;;;;;19.40;9.88;;;;;;;;;;5071078;28;20117;-66
2024/01/13 03:49:35;;;;;;;17.23;9.48;;;;;;;;;;5074031;28;20032;-66
2024/01/13 03:52:00;;;;;;;18.15;9.95;;;;;;;;;;5073026;28;20043;-66
2024/01/13 03:54:26;;;;;;;20.17;9.93;;;;;;;;;;5072649;28;20039;-67
2024/01/13 03:56:51;;;;;;;19.58;9.88;;;;;;;;;;5073423;28;20048;-66
2024/01/13 03:59:17;;;;;;;19.98;9.50;;;;;;;;;;5079069;28;20031;-67
2024/01/13 04:01:42;;;;;;;18.77;9.02;;;;;;;;;;5073919;28;20392;-67
2024/01/13 04:04:07;;;;;;;16.45;7.30;;;;;;;;;;5088380;28;20115;-66
2024/01/13 04:06:33;;;;;;;18.35;8.18;;;;;;;;;;5093073;28;20047;-66
2024/01/13 04:08:58;;;;;;;15.70;8.43;;;;;;;;;;5071472;28;20468;-67
2024/01/13 04:11:23;;;;;;;16.23;8.13;;;;;;;;;;5080370;28;20059;-67
2024/01/13 04:13:49;;;;;;;16.98;10.07;;;;;;;;;;5078359;28;20037;-67
2024/01/13 04:16:14;;;;;;;20.05;8.85;;;;;;;;;;5081209;28;20082;-69
2024/01/13 04:18:39;;;;;;;20.70;8.52;;;;;;;;;;5082189;28;20032;-68
2024/01/13 04:21:05;;;;;;;13.95;8.43;;;;;;;;;;5078100;28;20032;-68
2024/01/13 04:23:30;;;;;;;14.27;8.20;;;;;;;;;;5079553;28;20377;-68
2024/01/13 04:25:55;;;;;;;19.88;8.85;;;;;;;;;;5078255;28;20400;-68
2024/01/13 04:28:21;;;;;;;16.83;8.10;;;;;;;;;;5061637;28;20447;-68
2024/01/13 04:30:46;;;;;;;16.35;7.82;;;;;;;;;;5077929;28;20763;-67
2024/01/13 04:33:11;;;;;;;17.38;9.63;;;;;;;;;;5086742;28;20506;-68
2024/01/13 04:35:37;;;;;;;19.27;8.85;;;;;;;;;;5088600;28;20429;-68
2024/01/13 04:38:02;;;;;;;17.25;8.55;;;;;;;;;;5077677;28;20119;-68
2024/01/13 04:40:29;;;;;;;17.58;8.43;;;;;;;;;;5058374;28;20113;-67
2024/01/13 04:42:55;;;;;;;16.50;8.25;;;;;;;;;;5077526;28;20040;-67
2024/01/13 04:45:20;;;;;;;14.13;6.90;;;;;;;;;;5084982;28;20048;-67
2024/01/13 04:47:45;;;;;;;9.63;5.85;;;;;;;;;;5079384;28;20033;-67
2024/01/13 04:50:11;;;;;;;20.23;8.90;;;;;;;;;;5085008;28;20099;-66
2024/01/13 04:52:37;;;;;;;14.88;8.30;;;;;;;;;;5083414;28;20104;-66
2024/01/13 04:55:02;;;;;;;17.95;8.18;;;;;;;;;;5077325;28;20044;-66
2024/01/13 04:57:28;;;;;;;16.95;8.18;;;;;;;;;;5082147;28;20048;-66
2024/01/13 04:59:53;;;;;;;20.60;8.65;;;;;;;;;;5077586;28;20063;-68
2024/01/13 05:02:18;;;;;;;15.70;7.20;;;;;;;;;;5077741;28;20066;-67
2024/01/13 05:04:44;;;;;;;12.30;6.10;;;;;;;;;;5078391;28;19999;-67
2024/01/13 05:07:09;;;;;;;14.75;8.02;;;;;;;;;;5087532;28;19967;-67
2024/01/13 05:09:34;;;;;;;18.38;7.45;;;;;;;;;;5086075;28;20043;-67
2024/01/13 05:12:00;;;;;;;18.65;8.15;;;;;;;;;;5088441;28;20021;-66
2024/01/13 05:14:25;;;;;;;15.23;7.82;;;;;;;;;;5090699;28;20103;-68
2024/01/13 05:16:50;;;;;;;13.93;7.43;;;;;;;;;;5075481;28;20036;-68
2024/01/13 05:19:17;;;;;;;14.05;6.68;;;;;;;;;;5079298;28;20032;-67
2024/01/13 05:21:43;;;;;;;16.70;7.38;;;;;;;;;;5078757;28;20067;-67
2024/01/13 05:24:08;;;;;;;14.77;6.93;;;;;;;;;;5085905;28;20036;-68
2024/01/13 05:26:34;;;;;;;14.65;7.30;;;;;;;;;;5076583;28;20372;-66
2024/01/13 05:28:59;;;;;;;16.00;7.43;;;;;;;;;;5085312;28;20085;-67
2024/01/13 05:31:24;;;;;;;14.50;5.68;;;;;;;;;;5083057;28;20043;-67
2024/01/13 05:33:50;;;;;;;12.10;6.93;;;;;;;;;;5080087;28;20028;-67
2024/01/13 05:36:16;;;;;;;13.00;6.10;;;;;;;;;;5078406;28;20602;-67
2024/01/13 05:38:41;;;;;;;13.77;5.60;;;;;;;;;;5078638;28;20050;-67
2024/01/13 05:41:08;;;;;;;11.85;5.47;;;;;;;;;;5077835;28;20047;-66
2024/01/13 05:43:33;;;;;;;11.23;5.70;;;;;;;;;;5089379;28;20040;-67
2024/01/13 05:45:58;;;;;;;16.50;7.20;;;;;;;;;;5061684;28;20052;-66
2024/01/13 05:48:24;;;;;;;14.40;6.97;;;;;;;;;;5082326;28;20056;-66
2024/01/13 05:50:49;;;;;;;10.93;5.30;;;;;;;;;;5081960;28;20600;-67
2024/01/13 05:53:14;;;;;;;16.50;5.57;;;;;;;;;;5083309;28;20040;-66
2024/01/13 05:55:40;;;;;;;13.23;6.43;;;;;;;;;;5083915;28;20062;-66
2024/01/13 05:58:06;;;;;;;11.32;6.53;;;;;;;;;;5081848;28;20543;-67
2024/01/13 06:00:31;;;;;;;12.80;5.95;;;;;;;;;;5078233;28;20064;-66
2024/01/13 06:02:57;;;;;;;12.00;5.82;;;;;;;;;;5071950;28;20047;-67
2024/01/13 06:05:23;;;;;;;10.93;6.05;;;;;;;;;;5075701;28;20115;-66
2024/01/13 06:07:48;;;;;;;11.77;6.05;;;;;;;;;;5085362;28;20514;-67
2024/01/13 06:10:14;;;;;;;15.10;6.78;;;;;;;;;;5072053;28;20380;-67
2024/01/13 06:12:40;;;;;;;12.43;6.75;;;;;;;;;;5082452;28;20579;-67
2024/01/13 06:15:07;;;;;;;12.05;6.00;;;;;;;;;;5077956;28;20052;-68
2024/01/13 06:17:32;;;;;;;10.98;6.10;;;;;;;;;;5079797;28;20032;-68
2024/01/13 06:19:57;;;;;;;12.25;6.00;;;;;;;;;;5056003;28;20391;-67
2024/01/13 06:22:23;;;;;;;11.52;5.63;;;;;;;;;;5073269;28;20040;-66
2024/01/13 06:24:48;;;;;;;15.82;6.75;;;;;;;;;;5074098;28;20024;-67
2024/01/13 06:27:14;;;;;;;14.18;6.90;;;;;;;;;;5073093;28;20044;-67
2024/01/13 06:29:39;;;;;;;13.93;7.47;;;;;;;;;;5082581;28;20047;-67
2024/01/13 06:32:04;;;;;;;13.27;7.18;;;;;;;;;;5071141;28;20036;-66
2024/01/13 06:34:30;;;;;;;12.52;6.82;;;;;;;;;;5076341;28;20028;-66
2024/01/13 06:36:55;;;;;;;12.38;6.55;;;;;;;;;;5074468;28;20041;-67
2024/01/13 06:39:20;;;;;;;18.35;6.85;;;;;;;;;;5076800;28;20107;-67
2024/01/13 06:41:46;;;;;;;12.85;6.18;;;;;;;;;;5074207;28;20111;-67
2024/01/13 06:44:11;;;;;;;14.25;7.65;;;;;;;;;;5077263;28;20037;-66
2024/01/13 06:46:36;;;;;;;15.40;6.78;;;;;;;;;;5074455;28;20479;-67
2024/01/13 06:49:02;;;;;;;15.02;6.95;;;;;;;;;;5078045;28;20044;-68
2024/01/13 06:51:28;;;;;;;13.70;6.50;;;;;;;;;;5074294;28;20036;-68
2024/01/13 06:53:53;;;;;;;18.58;6.93;;;;;;;;;;5075123;28;20030;-67
2024/01/13 06:56:19;;;;;;;13.30;6.38;;;;;;;;;;5075161;28;20131;-66
2024/01/13 06:58:44;;;;;;;15.88;7.00;;;;;;;;;;5085839;28;20119;-67
2024/01/13 07:01:13;;;;;;;13.88;7.32;;;;;;;;;;5075177;28;20456;-66
2024/01/13 07:03:38;;;;;;;14.98;6.57;;;;;;;;;;5053258;28;20028;-67
2024/01/13 07:06:04;;;;;;;14.60;7.60;;;;;;;;;;5071714;28;20097;-68
2024/01/13 07:08:29;;;;;;;15.73;7.28;;;;;;;;;;5078878;28;20111;-66
2024/01/13 07:10:56;;;;;;;16.48;7.72;;;;;;;;;;5079702;28;20028;-67
2024/01/13 07:13:21;;;;;;;17.88;7.85;;;;;;;;;;5064944;28;20029;-67
2024/01/13 07:15:47;;;;;;;14.70;6.97;;;;;;;;;;5057123;28;20043;-66
2024/01/13 07:18:12;;;;;;;13.30;7.38;;;;;;;;;;5070853;28;20402;-67
2024/01/13 07:20:38;;;;;;;17.20;7.53;;;;;;;;;;5077045;28;20090;-67
2024/01/13 07:23:03;;;;;;;14.23;7.55;;;;;;;;;;5077931;28;20062;-67
2024/01/13 07:25:30;;;;;;;15.63;7.70;;;;;;;;;;5084487;28;20093;-67
2024/01/13 07:27:56;;;;;;;15.77;8.25;;;;;;;;;;5079163;28;20043;-66
2024/01/13 07:30:21;;;;;;;18.08;8.48;;;;;;;;;;5064740;28;20118;-67
2024/01/13 07:32:47;;;;;;;16.65;8.73;;;;;;;;;;5079940;28;20040;-66
2024/01/13 07:35:12;;;;;;;16.02;8.50;;;;;;;;;;5070354;28;20143;-68
2024/01/13 07:37:39;;;;;;;17.83;8.82;;;;;;;;;;5083220;28;20029;-67
2024/01/13 07:40:04;;;;;;;21.90;8.70;;;;;;;;;;5080717;28;20393;-66
2024/01/13 07:42:30;;;;;;;15.10;7.68;;;;;;;;;;5068032;28;20035;-66
2024/01/13 07:44:55;;;;;;;15.57;7.38;;;;;;;;;;5073198;28;20033;-67
2024/01/13 07:47:20;;;;;;;19.23;8.88;;;;;;;;;;5073583;28;20119;-67
2024/01/13 07:49:46;;;;;;;17.00;8.30;;;;;;;;;;5070997;28;20073;-66
2024/01/13 07:52:11;;;;;;;18.55;8.45;;;;;;;;;;5071612;28;20511;-67
2024/01/13 07:54:36;;;;;;;17.48;8.35;;;;;;;;;;5074243;28;20040;-67
2024/01/13 07:57:02;;;;;;;14.73;7.13;;;;;;;;;;5084510;28;20052;-67
2024/01/13 07:59:27;;;;;;;14.80;7.82;;;;;;;;;;5081191;28;20043;-67
2024/01/13 08:01:53;;;;;;;14.40;7.93;;;;;;;;;;5078494;28;20028;-67
2024/01/13 08:04:18;;;;;;;17.10;7.65;;;;;;;;;;5079290;28;20476;-68
2024/01/13 08:06:43;;;;;;;21.00;9.00;;;;;;;;;;5083201;28;20062;-67
2024/01/13 08:09:09;;;;;;;15.32;8.02;;;;;;;;;;5074276;28;20454;-67
2024/01/13 08:11:34;;;;;;;18.67;7.95;;;;;;;;;;5053480;28;20044;-67
2024/01/13 08:14:00;;;;;;;17.23;7.72;;;;;;;;;;5078069;28;20032;-67
2024/01/13 08:16:25;;;;;;;14.02;7.47;;;;;;;;;;5081250;28;20032;-67
2024/01/13 08:18:51;;;;;;;14.98;7.63;;;;;;;;;;5080199;28;20064;-67
2024/01/13 08:21:16;;;;;;;15.85;8.45;;;;;;;;;;5075692;28;20058;-67
2024/01/13 08:23:41;;;;;;;18.92;8.40;;;;;;;;;;5076731;28;20026;-67
2024/01/13 08:26:07;;;;;;;15.25;8.32;;;;;;;;;;5082872;28;20036;-66
2024/01/13 08:28:33;;;;;;;18.58;8.52;;;;;;;;;;5072985;28;20021;-67
2024/01/13 08:30:58;;;;;;;19.20;8.32;;;;;;;;;;5075263;28;20476;-68
2024/01/13 08:33:24;;;;;;;21.33;7.90;;;;;;;;;;5079343;28;20052;-66
2024/01/13 08:35:49;;;;;;;16.88;7.75;;;;;;;;;;5077761;28;20103;-67
2024/01/13 08:38:15;;;;;;;13.35;7.50;;;;;;;;;;5070347;28;20035;-66
2024/01/13 08:40:41;;;;;;;14.55;7.78;;;;;;;;;;5086468;28;20040;-67
2024/01/13 08:43:08;;;;;;;19.83;7.88;;;;;;;;;;5081145;28;20032;-67
2024/01/13 08:45:33;;;;;;;19.98;8.88;;;;;;;;;;5070105;28;20107;-67
2024/01/13 08:48:00;;;;;;;20.30;7.60;;;;;;;;;;5071810;28;20120;-68
2024/01/13 08:50:25;;;;;;;;;;;;;;;;;;5077213;28;20541;-67
2024/01/13 08:52:51;;;;;;;;;;;;;;;;;;5060151;28;20212;-67
2024/01/13 08:55:17;;;;;;;;;;;;;;;;;;5061857;28;20512;-66
2024/01/13 08:57:42;;;;;;;;;;;;;;;;;;5076467;28;20034;-67
2024/01/13 09:00:08;;;;;;;;;;;;;;;;;;5081731;28;19934;-67
2024/01/13 09:02:33;;;;;;;;;;;;;;;;;;5084493;28;24113;-67
2024/01/13 09:04:58;;;;;;;;;;;;;;;;;;5074836;28;20225;-68
2024/01/13 09:07:24;;;;;;;;;;;;;;;;;;5082859;28;20026;-69
2024/01/13 09:09:49;;;;;;;;;;;;;;;;;;5079561;28;20492;-69
2024/01/13 09:12:14;;;;;;;;;;;;;;;;;;5078167;28;20338;-68
2024/01/13 09:14:39;;;;;;;;;;;;;;;;;;5079282;28;20314;-67
2024/01/13 09:17:05;;;;;;;;;;;;;;;;;;5083431;28;20391;-66
2024/01/13 09:19:30;;;;;;;;;;;;;;;;;;5077418;28;19912;-66
2024/01/13 09:21:55;;;;;;;;;;;;;;;;;;5078015;28;20039;-66
2024/01/13 09:24:20;;;;;;;;;;;;;;;;;;5073286;28;20056;-66
2024/01/13 09:26:46;;;;;;;;;;;;;;;;;;5089216;28;24102;-66
2024/01/13 09:29:12;;;;;;;;;;;;;;;;;;5087534;28;20271;-69
2024/01/13 09:31:37;;;;;;;;;;;;;;;;;;5068124;28;20064;-67
2024/01/13 09:34:02;;;;;;;;;;;;;;;;;;5076814;28;19920;-68
2024/01/13 09:36:27;;;;;;;;;;;;;;;;;;5080796;28;20581;-68
2024/01/13 09:38:53;;;;;;;;;;;;;;;;;;5092224;28;19939;-69
2024/01/13 09:41:18;;;;;;;;;;;;;;;;;;5075150;28;20033;-67
2024/01/13 09:43:55;;;;;;;;;;;;;;;;;;5072494;28;20068;-68
2024/01/13 09:46:20;;;;;;;;;;;;;;;;;;5077065;28;24165;-68
2024/01/13 09:48:45;;;;;;;;;;;;;;;;;;5080512;28;20255;-67
2024/01/13 09:51:11;;;;;;;;;;;;;;;;;;5055592;28;19995;-66
2024/01/13 09:53:36;;;;;;;;;;;;;;;;;;5094217;28;20107;-67
2024/01/13 09:56:05;;;;;;;;;;;;;;;;;;5060255;28;20007;-67
2024/01/13 09:58:31;;;;;;;;;;;;;;;;;;5060990;28;20034;-67
2024/01/13 10:00:56;;;;;;;;;;;;;;;;;;5075611;28;20384;-67
2024/01/13 10:03:21;;;;;;;;;;;;;;;;;;5074110;28;20263;-67
2024/01/13 10:05:47;;;;;;;;;;;;;;;;;;5056859;28;20392;-67
2024/01/13 10:08:12;;;;;;;;;;;;;;;;;;5077026;28;20037;-67
2024/01/13 10:10:38;;;;;;;;;;;;;;;;;;5076116;28;20026;-67
2024/01/13 10:13:05;;;;;;;;;;;;;;;;;;5057407;28;20395;-67
2024/01/13 10:15:32;;;;;;;;;;;;;;;;;;5074122;28;19916;-67
2024/01/13 10:17:58;;;;;;;;;;;;;;;;;;5057177;28;19919;-68
2024/01/13 10:20:24;;;;;;;;;;;;;;;;;;5063777;28;20040;-67
2024/01/13 10:22:49;;;;;;;;;;;;;;;;;;5082277;28;20251;-67
2024/01/13 10:25:14;;;;;;;;;;;;;;;;;;5077523;28;20123;-66
2024/01/13 10:27:39;;;;;;;;;;;;;;;;;;5085430;28;20074;-66
2024/01/13 10:30:06;;;;;;;;;;;;;;;;;;5071800;28;24088;-66
2024/01/13 10:32:32;;;;;;;15.40;8.60;;;;;;;;;;5077631;28;19912;-68
2024/01/13 10:34:57;;;;;;;16.63;7.65;;;;;;;;;;5073948;28;20039;-67
2024/01/13 10:37:25;;;;;;;19.23;8.13;;;;;;;;;;5080204;28;20055;-66
2024/01/13 10:39:51;;;;;;;23.80;8.73;;;;;;;;;;5055685;28;20035;-67
2024/01/13 10:42:19;;;;;;;12.63;7.43;;;;;;;;;;5077984;28;20043;-68
2024/01/13 10:44:55;;;;;;;15.10;8.05;;;;;;;;;;5066841;28;20036;-66
2024/01/13 10:47:21;;;;;;;13.90;7.23;;;;;;;;;;5060919;28;20109;-67
2024/01/13 10:49:49;;;;;;;14.50;7.80;;;;;;;;;;5058786;28;20574;-66
2024/01/13 10:52:15;;;;;;;;;;;;;;;;;;5061013;28;19916;-68
2024/01/13 10:54:40;;;;;;;;;;;;;;;;;;5038627;28;20019;-67
2024/01/13 10:57:06;;;;;;;;;;;;;;;;;;5081521;28;20280;-68
2024/01/13 10:59:32;;;;;;;;;;;;;;;;;;5079694;28;20137;-66
2024/01/13 11:01:58;;;;;;;;;;;;;;;;;;5090952;28;20041;-68
2024/01/13 11:04:23;;;;;;;;;;;;;;;;;;5071493;28;19931;-67
2024/01/13 11:06:48;;;;;;;;;;;;;;;;;;5077717;28;20228;-67
2024/01/13 11:09:13;;;;;;;;;;;;;;;;;;5071260;28;25062;-67
2024/01/13 11:11:39;;;;;;;;;;;;;;;;;;5077355;28;20076;-67
2024/01/13 11:14:09;;;;;;;;;;;;;;;;;;5063408;28;19916;-66
2024/01/13 11:16:37;;;;;;;22.35;8.70;;;;;;;;;;5080174;28;19949;-66
2024/01/13 11:19:02;;;;;;;14.80;7.30;;;;;;;;;;5056843;28;20032;-67
2024/01/13 11:21:30;;;;;;;14.95;6.85;;;;;;;;;;5050727;28;20098;-68
2024/01/13 11:24:10;;;;;;;17.50;7.93;;;;;;;;;;5087763;28;20382;-67
2024/01/13 11:26:48;;;;;;;15.02;7.70;;;;;;;;;;5051890;28;20117;-68
2024/01/13 11:29:18;;;;;;;19.67;8.43;;;;;;;;;;5084713;28;20427;-67
2024/01/13 11:31:47;;;;;;;16.38;9.00;;;;;;;;;;5055172;28;20042;-67
2024/01/13 11:34:15;;;;;;;15.95;8.35;;;;;;;;;;5060238;28;20602;-67
2024/01/13 11:36:51;;;;;;;15.73;7.47;;;;;;;;;;5082199;28;20428;-67
2024/01/13 11:39:18;;;;;;;13.73;7.20;;;;;;;;;;5062598;28;20137;-67
2024/01/13 11:41:56;;;;;;;18.55;7.57;;;;;;;;;;5086202;28;20085;-67
2024/01/13 11:44:30;;;;;;;15.60;6.68;;;;;;;;;;5072611;28;20044;-66
2024/01/13 11:47:02;;;;;;;;;;;;;;;;;;5065213;28;20028;-67
2024/01/13 11:49:38;;;;;;;13.73;6.85;;;;;;;;;;5076592;28;20312;-67
2024/01/13 11:52:04;;;;;;;13.80;6.53;;;;;;;;;;5061071;28;20060;-67
2024/01/13 11:54:30;;;;;;;15.38;6.65;;;;;;;;;;5067904;28;20046;-67
2024/01/13 11:57:01;;;;;;;18.33;7.82;;;;;;;;;;5083246;28;20051;-67
2024/01/13 11:59:26;;;;;;;15.90;8.32;;;;;;;;;;5083664;28;20032;-67
2024/01/13 12:01:53;;;;;;;18.00;8.75;;;;;;;;;;5073120;28;20051;-68
2024/01/13 12:04:19;;;;;;;15.25;7.47;;;;;;;;;;5083284;28;20090;-67
2024/01/13 12:06:45;;;;;;;17.20;7.70;;;;;;;;;;5065523;28;20051;-67
2024/01/13 12:09:11;;;;;;;16.90;8.10;;;;;;;;;;5057400;28;20065;-67
2024/01/13 12:11:39;;;;;;;17.63;7.80;;;;;;;;;;5075136;28;20039;-67
2024/01/13 12:14:06;;;;;;;16.17;8.10;;;;;;;;;;5071068;28;20024;-66
2024/01/13 12:16:31;;;;;;;15.57;8.15;;;;;;;;;;5065629;28;20044;-66
2024/01/13 12:18:57;;;;;;;18.63;8.90;;;;;;;;;;5071008;28;20091;-67
2024/01/13 12:21:22;;;;;;;16.35;7.60;;;;;;;;;;5058595;28;20396;-67
2024/01/13 12:23:48;;;;;;;19.33;8.57;;;;;;;;;;5076475;28;20487;-67
2024/01/13 12:26:13;;;;;;;16.73;8.35;;;;;;;;;;5073418;28;20036;-66
2024/01/13 12:28:40;;;;;;;19.48;8.23;;;;;;;;;;5075293;28;20039;-66
2024/01/13 12:31:05;;;;;;;15.85;8.30;;;;;;;;;;5060972;28;20040;-66
2024/01/13 12:33:34;;;;;;;12.57;7.57;;;;;;;;;;5077738;28;20066;-66
2024/01/13 12:36:04;;;;;;;16.27;7.25;;;;;;;;;;5083682;28;20032;-66
2024/01/13 12:38:30;;;;;;;16.77;7.40;;;;;;;;;;5087444;28;20118;-67
2024/01/13 12:40:57;;;;;;;18.43;7.80;;;;;;;;;;5066562;28;20312;-66
2024/01/13 12:43:23;;;;;;;13.15;7.03;;;;;;;;;;5081662;28;20082;-66
2024/01/13 12:45:52;;;;;;;15.10;7.17;;;;;;;;;;5059676;28;20582;-67
2024/01/13 12:48:17;;;;;;;12.73;6.60;;;;;;;;;;5062213;28;20078;-67
2024/01/13 12:50:43;;;;;;;14.88;6.72;;;;;;;;;;5068208;28;20453;-67
2024/01/13 12:53:09;;;;;;;11.63;6.90;;;;;;;;;;5074186;28;20048;-66
2024/01/13 12:55:35;;;;;;;16.25;6.88;;;;;;;;;;5082279;28;20059;-67
2024/01/13 12:58:00;;;;;;;11.73;6.03;;;;;;;;;;5076564;28;20059;-68
2024/01/13 13:00:28;;;;;;;13.10;6.55;;;;;;;;;;5077006;28;20032;-66
2024/01/13 13:02:57;;;;;;;11.63;6.28;;;;;;;;;;5073539;28;20024;-67
2024/01/13 13:05:23;;;;;;;12.27;5.55;;;;;;;;;;5058318;28;20029;-66
2024/01/13 13:07:48;;;;;;;12.57;5.55;;;;;;;;;;5080487;28;20041;-67
2024/01/13 13:10:14;;;;;;;8.65;5.72;;;;;;;;;;5077655;28;20116;-67
2024/01/13 13:12:40;;;;;;;8.07;5.30;;;;;;;;;;5076913;28;20041;-68
2024/01/13 13:15:06;;;;;;;9.48;4.90;;;;;;;;;;5086447;28;20048;-67
2024/01/13 13:17:31;;;;;;;9.00;5.35;;;;;;;;;;5076442;28;20035;-67
2024/01/13 13:19:57;;;;;;;8.13;4.75;;;;;;;;;;5071734;28;20028;-67
2024/01/13 13:22:23;;;;;;;7.82;4.57;;;;;;;;;;5075909;28;20036;-69
2024/01/13 13:24:48;;;;;;;7.80;4.50;;;;;;;;;;5077371;28;20028;-69
2024/01/13 13:27:13;;;;;;;10.35;5.80;;;;;;;;;;5086819;28;20020;-68
2024/01/13 13:29:40;;;;;;;11.38;6.53;;;;;;;;;;5083443;28;20637;-68
2024/01/13 13:32:05;;;;;;;11.50;7.07;;;;;;;;;;5078493;28;20122;-69
2024/01/13 13:34:30;;;;;;;15.40;7.63;;;;;;;;;;5074051;28;20107;-68
2024/01/13 13:36:56;;;;;;;14.07;7.63;;;;;;;;;;5064886;28;20083;-67
2024/01/13 13:39:22;;;;;;;12.93;7.72;;;;;;;;;;5077028;28;20048;-67
2024/01/13 13:41:48;;;;;;;11.63;6.78;;;;;;;;;;5077142;28;20119;-67
2024/01/13 13:44:14;;;;;;;14.38;7.07;;;;;;;;;;5066192;28;20044;-67
2024/01/13 13:46:39;;;;;;;12.35;7.78;;;;;;;;;;5071939;28;20089;-66
2024/01/13 13:49:05;;;;;;;17.85;8.75;;;;;;;;;;5072951;28;20028;-67
2024/01/13 13:51:30;;;;;;;16.45;8.50;;;;;;;;;;5078108;28;20048;-66
2024/01/13 13:53:59;;;;;;;23.58;11.50;;;;;;;;;;5075588;28;20415;-66
2024/01/13 13:56:24;;;;;;;27.67;11.48;;;;;;;;;;5072442;28;20044;-66
2024/01/13 13:58:50;;;;;;;24.92;11.93;;;;;;;;;;5072661;28;20040;-66
2024/01/13 14:01:15;;;;;;;18.20;8.93;;;;;;;;;;5076359;28;20070;-68
2024/01/13 14:03:40;;;;;;;17.15;9.38;;;;;;;;;;5084030;28;20062;-69
2024/01/13 14:06:06;;;;;;;14.57;7.60;;;;;;;;;;5091330;28;20566;-68
2024/01/13 14:08:32;;;;;;;11.82;5.90;;;;;;;;;;5078951;28;20032;-69
2024/01/13 14:10:57;;;;;;;11.52;4.75;;;;;;;;;;5072307;28;20027;-68
2024/01/13 14:13:24;;;;;;;15.20;5.63;;;;;;;;;;5079151;28;20059;-68
2024/01/13 14:15:50;;;;;;;8.43;4.30;;;;;;;;;;5079505;28;20126;-67
2024/01/13 14:18:15;;;;;;;10.93;5.25;;;;;;;;;;5074968;28;20546;-68
2024/01/13 14:20:41;;;;;;;9.90;5.38;;;;;;;;;;5091751;28;20466;-67
2024/01/13 14:23:07;;;;;;;10.60;5.68;;;;;;;;;;5087506;28;20075;-68
2024/01/13 14:25:35;;;;;;;10.27;5.53;;;;;;;;;;5070550;28;20119;-69
2024/01/13 14:28:00;;;;;;;18.30;5.20;;;;;;;;;;5083736;28;20033;-67
2024/01/13 14:30:26;;;;;;;7.35;4.82;;;;;;;;;;5084358;28;20590;-67
2024/01/13 14:32:51;;;;;;;10.00;4.60;;;;;;;;;;5079513;28;20032;-67
2024/01/13 14:35:16;;;;;;;7.80;4.82;;;;;;;;;;5083512;28;20036;-67
2024/01/13 14:37:42;;;;;;;5.80;4.00;;;;;;;;;;5078061;28;20032;-68
2024/01/13 14:40:08;;;;;;;6.50;4.20;;;;;;;;;;5075563;28;20500;-68
2024/01/13 14:42:37;;;;;;;8.77;4.22;;;;;;;;;;5075952;28;20072;-67